sensor_id;sensor_type;location;lat;lon;timestamp;P1;durP1;ratioP1;P2;durP2;ratioP2
54430;SDS011;40342;52.998;5.862;2022-09-09T00:09:39;10.63;;;4.30;;
54430;SDS011;40342;52.998;5.862;2022-09-09T00:12:11;8.05;;;3.72;;
54430;SDS011;40342;52.998;5.862;2022-09-09T00:17:32;12.32;;;4.07;;
54430;SDS011;40342;52.998;5.862;2022-09-09T00:20:14;9.80;;;4.22;;
54430;SDS011;40342;52.998;5.862;2022-09-09T00:22:54;7.28;;;3.90;;
54430;SDS011;40342;52.998;5.862;2022-09-09T00:28:23;7.85;;;4.13;;
54430;SDS011;40342;52.998;5.862;2022-09-09T00:30:51;7.57;;;4.13;;
54430;SDS011;40342;52.998;5.862;2022-09-09T00:33:19;9.60;;;4.60;;
54430;SDS011;40342;52.998;5.862;2022-09-09T00:35:51;7.32;;;4.32;;
54430;SDS011;40342;52.998;5.862;2022-09-09T00:41:11;9.00;;;3.95;;
54430;SDS011;40342;52.998;5.862;2022-09-09T00:44:20;7.53;;;4.05;;
54430;SDS011;40342;52.998;5.862;2022-09-09T00:47:07;13.55;;;4.18;;
54430;SDS011;40342;52.998;5.862;2022-09-09T00:50:05;8.68;;;3.75;;
54430;SDS011;40342;52.998;5.862;2022-09-09T00:52:43;4.95;;;3.30;;
54430;SDS011;40342;52.998;5.862;2022-09-09T00:55:41;5.57;;;3.78;;
54430;SDS011;40342;52.998;5.862;2022-09-09T00:58:14;6.03;;;3.90;;
54430;SDS011;40342;52.998;5.862;2022-09-09T01:00:42;6.63;;;3.85;;
54430;SDS011;40342;52.998;5.862;2022-09-09T01:03:12;7.63;;;3.92;;
54430;SDS011;40342;52.998;5.862;2022-09-09T01:08:53;6.30;;;3.67;;
54430;SDS011;40342;52.998;5.862;2022-09-09T01:16:59;7.13;;;3.42;;
54430;SDS011;40342;52.998;5.862;2022-09-09T01:27:42;7.30;;;4.03;;
54430;SDS011;40342;52.998;5.862;2022-09-09T01:30:11;6.10;;;3.80;;
54430;SDS011;40342;52.998;5.862;2022-09-09T01:32:43;6.97;;;3.83;;
54430;SDS011;40342;52.998;5.862;2022-09-09T01:37:51;6.90;;;3.72;;
54430;SDS011;40342;52.998;5.862;2022-09-09T01:40:16;7.00;;;3.92;;
54430;SDS011;40342;52.998;5.862;2022-09-09T01:42:42;7.03;;;4.00;;
54430;SDS011;40342;52.998;5.862;2022-09-09T01:45:08;9.32;;;3.80;;
54430;SDS011;40342;52.998;5.862;2022-09-09T01:47:34;9.13;;;4.13;;
54430;SDS011;40342;52.998;5.862;2022-09-09T01:50:01;8.18;;;4.47;;
54430;SDS011;40342;52.998;5.862;2022-09-09T01:52:28;9.55;;;4.00;;
54430;SDS011;40342;52.998;5.862;2022-09-09T01:54:54;4.60;;;4.15;;
54430;SDS011;40342;52.998;5.862;2022-09-09T01:57:33;8.20;;;3.78;;
54430;SDS011;40342;52.998;5.862;2022-09-09T02:00:08;6.78;;;4.13;;
54430;SDS011;40342;52.998;5.862;2022-09-09T02:05:22;5.15;;;3.75;;
54430;SDS011;40342;52.998;5.862;2022-09-09T02:10:35;5.90;;;4.05;;
54430;SDS011;40342;52.998;5.862;2022-09-09T02:13:11;5.10;;;3.97;;
54430;SDS011;40342;52.998;5.862;2022-09-09T02:15:47;5.95;;;3.85;;
54430;SDS011;40342;52.998;5.862;2022-09-09T02:18:17;8.75;;;4.38;;
54430;SDS011;40342;52.998;5.862;2022-09-09T02:20:49;7.45;;;3.92;;
54430;SDS011;40342;52.998;5.862;2022-09-09T02:23:16;6.88;;;3.63;;
54430;SDS011;40342;52.998;5.862;2022-09-09T02:25:44;6.95;;;3.70;;
54430;SDS011;40342;52.998;5.862;2022-09-09T02:28:11;6.95;;;3.70;;
54430;SDS011;40342;52.998;5.862;2022-09-09T02:30:40;7.80;;;4.15;;
54430;SDS011;40342;52.998;5.862;2022-09-09T02:33:09;6.55;;;3.53;;
54430;SDS011;40342;52.998;5.862;2022-09-09T02:35:37;5.97;;;3.40;;
54430;SDS011;40342;52.998;5.862;2022-09-09T02:38:05;6.45;;;3.90;;
54430;SDS011;40342;52.998;5.862;2022-09-09T02:40:34;9.57;;;3.65;;
54430;SDS011;40342;52.998;5.862;2022-09-09T02:43:00;5.30;;;3.45;;
54430;SDS011;40342;52.998;5.862;2022-09-09T02:45:27;8.00;;;4.30;;
54430;SDS011;40342;52.998;5.862;2022-09-09T02:51:06;6.53;;;3.53;;
54430;SDS011;40342;52.998;5.862;2022-09-09T02:53:44;6.75;;;3.92;;
54430;SDS011;40342;52.998;5.862;2022-09-09T02:56:18;5.72;;;3.50;;
54430;SDS011;40342;52.998;5.862;2022-09-09T02:58:47;6.20;;;3.38;;
54430;SDS011;40342;52.998;5.862;2022-09-09T03:01:12;4.10;;;3.38;;
54430;SDS011;40342;52.998;5.862;2022-09-09T03:03:39;7.55;;;4.25;;
54430;SDS011;40342;52.998;5.862;2022-09-09T03:06:06;3.70;;;3.40;;
54430;SDS011;40342;52.998;5.862;2022-09-09T03:08:32;6.63;;;3.67;;
54430;SDS011;40342;52.998;5.862;2022-09-09T03:11:00;5.10;;;2.90;;
54430;SDS011;40342;52.998;5.862;2022-09-09T03:13:26;7.35;;;3.58;;
54430;SDS011;40342;52.998;5.862;2022-09-09T03:15:52;5.30;;;3.05;;
54430;SDS011;40342;52.998;5.862;2022-09-09T03:18:17;5.00;;;2.63;;
54430;SDS011;40342;52.998;5.862;2022-09-09T03:20:43;6.45;;;3.17;;
54430;SDS011;40342;52.998;5.862;2022-09-09T03:23:08;3.60;;;2.95;;
54430;SDS011;40342;52.998;5.862;2022-09-09T03:25:34;5.20;;;3.17;;
54430;SDS011;40342;52.998;5.862;2022-09-09T03:28:00;6.10;;;3.15;;
54430;SDS011;40342;52.998;5.862;2022-09-09T03:30:27;5.70;;;3.25;;
54430;SDS011;40342;52.998;5.862;2022-09-09T03:32:53;5.03;;;3.20;;
54430;SDS011;40342;52.998;5.862;2022-09-09T03:35:20;4.50;;;3.20;;
54430;SDS011;40342;52.998;5.862;2022-09-09T03:37:46;6.53;;;3.65;;
54430;SDS011;40342;52.998;5.862;2022-09-09T03:40:11;5.38;;;3.60;;
54430;SDS011;40342;52.998;5.862;2022-09-09T03:42:37;4.80;;;3.30;;
54430;SDS011;40342;52.998;5.862;2022-09-09T03:45:04;6.82;;;3.40;;
54430;SDS011;40342;52.998;5.862;2022-09-09T03:47:31;9.35;;;3.80;;
54430;SDS011;40342;52.998;5.862;2022-09-09T03:49:57;6.05;;;3.33;;
54430;SDS011;40342;52.998;5.862;2022-09-09T03:52:22;5.88;;;3.45;;
54430;SDS011;40342;52.998;5.862;2022-09-09T03:54:51;6.63;;;3.08;;
54430;SDS011;40342;52.998;5.862;2022-09-09T03:57:18;5.28;;;2.97;;
54430;SDS011;40342;52.998;5.862;2022-09-09T03:59:44;6.38;;;2.72;;
54430;SDS011;40342;52.998;5.862;2022-09-09T04:02:09;5.95;;;2.50;;
54430;SDS011;40342;52.998;5.862;2022-09-09T04:04:35;6.10;;;2.58;;
54430;SDS011;40342;52.998;5.862;2022-09-09T04:07:01;3.80;;;2.70;;
54430;SDS011;40342;52.998;5.862;2022-09-09T04:09:27;5.88;;;2.90;;
54430;SDS011;40342;52.998;5.862;2022-09-09T04:11:52;4.25;;;2.78;;
54430;SDS011;40342;52.998;5.862;2022-09-09T04:14:18;5.10;;;2.88;;
54430;SDS011;40342;52.998;5.862;2022-09-09T04:16:44;3.70;;;2.30;;
54430;SDS011;40342;52.998;5.862;2022-09-09T04:19:10;3.80;;;2.53;;
54430;SDS011;40342;52.998;5.862;2022-09-09T04:21:38;6.93;;;2.72;;
54430;SDS011;40342;52.998;5.862;2022-09-09T04:24:05;5.72;;;2.35;;
54430;SDS011;40342;52.998;5.862;2022-09-09T04:26:32;5.03;;;2.40;;
54430;SDS011;40342;52.998;5.862;2022-09-09T04:28:58;4.40;;;2.70;;
54430;SDS011;40342;52.998;5.862;2022-09-09T04:31:23;7.50;;;3.05;;
54430;SDS011;40342;52.998;5.862;2022-09-09T04:33:52;5.47;;;3.00;;
54430;SDS011;40342;52.998;5.862;2022-09-09T04:36:18;3.65;;;2.92;;
54430;SDS011;40342;52.998;5.862;2022-09-09T04:38:44;6.47;;;3.08;;
54430;SDS011;40342;52.998;5.862;2022-09-09T04:41:10;5.40;;;3.42;;
54430;SDS011;40342;52.998;5.862;2022-09-09T04:43:36;7.10;;;3.10;;
54430;SDS011;40342;52.998;5.862;2022-09-09T04:46:03;4.97;;;3.40;;
54430;SDS011;40342;52.998;5.862;2022-09-09T04:48:29;7.88;;;3.20;;
54430;SDS011;40342;52.998;5.862;2022-09-09T04:51:00;4.53;;;3.28;;
54430;SDS011;40342;52.998;5.862;2022-09-09T04:53:28;5.30;;;3.65;;
54430;SDS011;40342;52.998;5.862;2022-09-09T04:56:04;7.57;;;3.55;;
54430;SDS011;40342;52.998;5.862;2022-09-09T04:58:31;4.05;;;3.45;;
54430;SDS011;40342;52.998;5.862;2022-09-09T05:01:04;6.97;;;3.85;;
54430;SDS011;40342;52.998;5.862;2022-09-09T05:03:31;6.38;;;4.00;;
54430;SDS011;40342;52.998;5.862;2022-09-09T05:06:07;5.07;;;4.28;;
54430;SDS011;40342;52.998;5.862;2022-09-09T05:08:38;5.38;;;4.20;;
54430;SDS011;40342;52.998;5.862;2022-09-09T05:11:17;6.07;;;4.00;;
54430;SDS011;40342;52.998;5.862;2022-09-09T05:13:45;6.95;;;4.38;;
54430;SDS011;40342;52.998;5.862;2022-09-09T05:16:12;4.45;;;4.07;;
54430;SDS011;40342;52.998;5.862;2022-09-09T05:18:38;8.60;;;4.95;;
54430;SDS011;40342;52.998;5.862;2022-09-09T05:21:05;5.78;;;4.43;;
54430;SDS011;40342;52.998;5.862;2022-09-09T05:23:31;8.93;;;5.07;;
54430;SDS011;40342;52.998;5.862;2022-09-09T05:25:58;5.97;;;5.43;;
54430;SDS011;40342;52.998;5.862;2022-09-09T05:28:25;6.45;;;5.40;;
54430;SDS011;40342;52.998;5.862;2022-09-09T05:30:55;6.72;;;5.28;;
54430;SDS011;40342;52.998;5.862;2022-09-09T05:33:22;6.82;;;5.30;;
54430;SDS011;40342;52.998;5.862;2022-09-09T05:35:48;10.18;;;5.35;;
54430;SDS011;40342;52.998;5.862;2022-09-09T05:38:23;9.90;;;5.22;;
54430;SDS011;40342;52.998;5.862;2022-09-09T05:40:50;7.40;;;5.63;;
54430;SDS011;40342;52.998;5.862;2022-09-09T05:43:17;7.00;;;5.63;;
54430;SDS011;40342;52.998;5.862;2022-09-09T05:45:46;7.30;;;5.50;;
54430;SDS011;40342;52.998;5.862;2022-09-09T05:48:15;7.30;;;4.72;;
54430;SDS011;40342;52.998;5.862;2022-09-09T05:50:41;7.90;;;5.55;;
54430;SDS011;40342;52.998;5.862;2022-09-09T05:53:08;7.90;;;5.25;;
54430;SDS011;40342;52.998;5.862;2022-09-09T05:55:35;6.45;;;5.50;;
54430;SDS011;40342;52.998;5.862;2022-09-09T05:58:00;6.22;;;5.00;;
54430;SDS011;40342;52.998;5.862;2022-09-09T06:00:26;6.80;;;5.32;;
54430;SDS011;40342;52.998;5.862;2022-09-09T06:02:52;8.07;;;5.78;;
54430;SDS011;40342;52.998;5.862;2022-09-09T06:05:19;6.03;;;5.20;;
54430;SDS011;40342;52.998;5.862;2022-09-09T06:07:45;7.63;;;6.00;;
54430;SDS011;40342;52.998;5.862;2022-09-09T06:10:11;7.60;;;5.80;;
54430;SDS011;40342;52.998;5.862;2022-09-09T06:12:38;6.78;;;6.07;;
54430;SDS011;40342;52.998;5.862;2022-09-09T06:15:04;8.38;;;6.22;;
54430;SDS011;40342;52.998;5.862;2022-09-09T06:17:30;11.65;;;7.20;;
54430;SDS011;40342;52.998;5.862;2022-09-09T06:19:56;6.15;;;5.53;;
54430;SDS011;40342;52.998;5.862;2022-09-09T06:22:22;8.10;;;6.28;;
54430;SDS011;40342;52.998;5.862;2022-09-09T06:24:47;8.60;;;6.18;;
54430;SDS011;40342;52.998;5.862;2022-09-09T06:27:13;6.30;;;5.70;;
54430;SDS011;40342;52.998;5.862;2022-09-09T06:29:38;6.13;;;5.53;;
54430;SDS011;40342;52.998;5.862;2022-09-09T06:32:04;10.25;;;6.38;;
54430;SDS011;40342;52.998;5.862;2022-09-09T06:34:30;10.25;;;6.25;;
54430;SDS011;40342;52.998;5.862;2022-09-09T06:36:56;6.45;;;5.78;;
54430;SDS011;40342;52.998;5.862;2022-09-09T06:39:23;6.10;;;5.45;;
54430;SDS011;40342;52.998;5.862;2022-09-09T06:41:48;6.47;;;5.68;;
54430;SDS011;40342;52.998;5.862;2022-09-09T06:44:14;6.70;;;5.57;;
54430;SDS011;40342;52.998;5.862;2022-09-09T06:46:40;7.00;;;5.30;;
54430;SDS011;40342;52.998;5.862;2022-09-09T06:49:07;7.03;;;5.70;;
54430;SDS011;40342;52.998;5.862;2022-09-09T06:51:34;7.22;;;5.70;;
54430;SDS011;40342;52.998;5.862;2022-09-09T06:54:01;6.43;;;5.30;;
54430;SDS011;40342;52.998;5.862;2022-09-09T06:56:35;8.23;;;5.22;;
54430;SDS011;40342;52.998;5.862;2022-09-09T06:59:02;6.30;;;5.40;;
54430;SDS011;40342;52.998;5.862;2022-09-09T07:01:31;7.05;;;4.90;;
54430;SDS011;40342;52.998;5.862;2022-09-09T07:03:59;5.35;;;4.85;;
54430;SDS011;40342;52.998;5.862;2022-09-09T07:06:32;5.78;;;5.07;;
54430;SDS011;40342;52.998;5.862;2022-09-09T07:09:09;5.97;;;5.30;;
54430;SDS011;40342;52.998;5.862;2022-09-09T07:11:46;8.50;;;5.22;;
54430;SDS011;40342;52.998;5.862;2022-09-09T07:14:13;7.28;;;5.63;;
54430;SDS011;40342;52.998;5.862;2022-09-09T07:16:43;8.60;;;5.55;;
54430;SDS011;40342;52.998;5.862;2022-09-09T07:19:10;7.18;;;5.28;;
54430;SDS011;40342;52.998;5.862;2022-09-09T07:21:37;8.70;;;5.28;;
54430;SDS011;40342;52.998;5.862;2022-09-09T07:24:05;9.93;;;5.20;;
54430;SDS011;40342;52.998;5.862;2022-09-09T07:26:32;5.60;;;4.75;;
54430;SDS011;40342;52.998;5.862;2022-09-09T07:28:58;8.52;;;5.03;;
54430;SDS011;40342;52.998;5.862;2022-09-09T07:31:28;5.90;;;4.93;;
54430;SDS011;40342;52.998;5.862;2022-09-09T07:33:59;6.05;;;4.88;;
54430;SDS011;40342;52.998;5.862;2022-09-09T07:36:27;7.55;;;4.65;;
54430;SDS011;40342;52.998;5.862;2022-09-09T07:39:02;9.57;;;4.78;;
54430;SDS011;40342;52.998;5.862;2022-09-09T07:44:04;7.78;;;4.15;;
54430;SDS011;40342;52.998;5.862;2022-09-09T07:46:31;5.72;;;4.50;;
54430;SDS011;40342;52.998;5.862;2022-09-09T07:48:57;8.02;;;4.90;;
54430;SDS011;40342;52.998;5.862;2022-09-09T07:51:24;7.03;;;4.72;;
54430;SDS011;40342;52.998;5.862;2022-09-09T07:53:53;10.00;;;5.03;;
54430;SDS011;40342;52.998;5.862;2022-09-09T07:56:23;8.10;;;4.35;;
54430;SDS011;40342;52.998;5.862;2022-09-09T07:58:50;5.38;;;4.65;;
54430;SDS011;40342;52.998;5.862;2022-09-09T08:01:18;7.53;;;4.40;;
54430;SDS011;40342;52.998;5.862;2022-09-09T08:03:44;6.35;;;4.13;;
54430;SDS011;40342;52.998;5.862;2022-09-09T08:06:11;6.10;;;3.88;;
54430;SDS011;40342;52.998;5.862;2022-09-09T08:08:38;10.43;;;3.83;;
54430;SDS011;40342;52.998;5.862;2022-09-09T08:11:14;6.78;;;3.67;;
54430;SDS011;40342;52.998;5.862;2022-09-09T08:13:41;7.18;;;3.80;;
54430;SDS011;40342;52.998;5.862;2022-09-09T08:16:09;9.15;;;3.38;;
54430;SDS011;40342;52.998;5.862;2022-09-09T08:18:40;7.40;;;3.60;;
54430;SDS011;40342;52.998;5.862;2022-09-09T08:21:07;7.53;;;3.50;;
54430;SDS011;40342;52.998;5.862;2022-09-09T08:23:36;8.05;;;3.35;;
54430;SDS011;40342;52.998;5.862;2022-09-09T08:26:04;10.27;;;3.47;;
54430;SDS011;40342;52.998;5.862;2022-09-09T08:28:31;5.28;;;3.45;;
54430;SDS011;40342;52.998;5.862;2022-09-09T08:31:04;8.20;;;3.25;;
54430;SDS011;40342;52.998;5.862;2022-09-09T08:33:40;10.32;;;3.65;;
54430;SDS011;40342;52.998;5.862;2022-09-09T08:36:07;9.15;;;3.22;;
54430;SDS011;40342;52.998;5.862;2022-09-09T08:38:35;7.28;;;3.40;;
54430;SDS011;40342;52.998;5.862;2022-09-09T08:41:07;9.30;;;3.35;;
54430;SDS011;40342;52.998;5.862;2022-09-09T08:43:50;7.18;;;3.53;;
54430;SDS011;40342;52.998;5.862;2022-09-09T08:46:29;13.55;;;4.05;;
54430;SDS011;40342;52.998;5.862;2022-09-09T08:49:36;8.00;;;3.10;;
54430;SDS011;40342;52.998;5.862;2022-09-09T08:52:29;10.15;;;3.35;;
54430;SDS011;40342;52.998;5.862;2022-09-09T08:55:03;8.90;;;3.40;;
54430;SDS011;40342;52.998;5.862;2022-09-09T08:57:40;12.27;;;3.25;;
54430;SDS011;40342;52.998;5.862;2022-09-09T09:00:07;12.65;;;3.40;;
54430;SDS011;40342;52.998;5.862;2022-09-09T09:02:43;6.90;;;2.92;;
54430;SDS011;40342;52.998;5.862;2022-09-09T09:05:46;9.75;;;2.83;;
54430;SDS011;40342;52.998;5.862;2022-09-09T09:08:26;7.65;;;3.05;;
54430;SDS011;40342;52.998;5.862;2022-09-09T09:10:54;7.95;;;2.78;;
54430;SDS011;40342;52.998;5.862;2022-09-09T09:15:53;7.05;;;2.65;;
54430;SDS011;40342;52.998;5.862;2022-09-09T09:18:27;9.20;;;2.95;;
54430;SDS011;40342;52.998;5.862;2022-09-09T09:20:58;9.05;;;3.28;;
54430;SDS011;40342;52.998;5.862;2022-09-09T09:23:59;8.65;;;2.60;;
54430;SDS011;40342;52.998;5.862;2022-09-09T09:26:25;7.80;;;2.88;;
54430;SDS011;40342;52.998;5.862;2022-09-09T09:28:57;12.13;;;2.70;;
54430;SDS011;40342;52.998;5.862;2022-09-09T09:31:24;9.63;;;2.60;;
54430;SDS011;40342;52.998;5.862;2022-09-09T09:33:55;7.30;;;2.20;;
54430;SDS011;40342;52.998;5.862;2022-09-09T09:36:42;9.38;;;2.70;;
54430;SDS011;40342;52.998;5.862;2022-09-09T09:39:21;10.05;;;2.70;;
54430;SDS011;40342;52.998;5.862;2022-09-09T09:41:48;9.82;;;2.30;;
54430;SDS011;40342;52.998;5.862;2022-09-09T09:44:30;7.13;;;2.17;;
54430;SDS011;40342;52.998;5.862;2022-09-09T09:47:07;7.35;;;2.20;;
54430;SDS011;40342;52.998;5.862;2022-09-09T09:49:34;6.70;;;2.05;;
54430;SDS011;40342;52.998;5.862;2022-09-09T09:52:00;7.88;;;2.53;;
54430;SDS011;40342;52.998;5.862;2022-09-09T09:54:30;7.38;;;2.00;;
54430;SDS011;40342;52.998;5.862;2022-09-09T09:57:08;6.90;;;2.15;;
54430;SDS011;40342;52.998;5.862;2022-09-09T09:59:39;4.57;;;1.63;;
54430;SDS011;40342;52.998;5.862;2022-09-09T10:04:45;9.43;;;2.42;;
54430;SDS011;40342;52.998;5.862;2022-09-09T10:07:13;7.75;;;2.33;;
54430;SDS011;40342;52.998;5.862;2022-09-09T10:09:43;10.20;;;2.40;;
54430;SDS011;40342;52.998;5.862;2022-09-09T10:14:54;6.97;;;1.67;;
54430;SDS011;40342;52.998;5.862;2022-09-09T10:20:29;8.18;;;2.25;;
54430;SDS011;40342;52.998;5.862;2022-09-09T10:23:13;9.05;;;1.92;;
54430;SDS011;40342;52.998;5.862;2022-09-09T10:31:11;10.38;;;1.85;;
54430;SDS011;40342;52.998;5.862;2022-09-09T10:36:25;4.88;;;1.75;;
54430;SDS011;40342;52.998;5.862;2022-09-09T10:41:40;5.40;;;1.80;;
54430;SDS011;40342;52.998;5.862;2022-09-09T10:44:23;10.57;;;2.47;;
54430;SDS011;40342;52.998;5.862;2022-09-09T10:47:05;10.05;;;2.60;;
54430;SDS011;40342;52.998;5.862;2022-09-09T10:52:55;10.48;;;2.10;;
54430;SDS011;40342;52.998;5.862;2022-09-09T10:55:39;6.32;;;1.70;;
54430;SDS011;40342;52.998;5.862;2022-09-09T10:58:10;8.20;;;1.88;;
54430;SDS011;40342;52.998;5.862;2022-09-09T11:00:49;11.35;;;2.00;;
54430;SDS011;40342;52.998;5.862;2022-09-09T11:03:20;6.97;;;1.67;;
54430;SDS011;40342;52.998;5.862;2022-09-09T11:06:15;6.20;;;1.90;;
54430;SDS011;40342;52.998;5.862;2022-09-09T11:08:44;5.65;;;1.90;;
54430;SDS011;40342;52.998;5.862;2022-09-09T11:11:13;5.85;;;1.70;;
54430;SDS011;40342;52.998;5.862;2022-09-09T11:16:21;8.40;;;1.88;;
54430;SDS011;40342;52.998;5.862;2022-09-09T11:22:19;6.72;;;2.03;;
54430;SDS011;40342;52.998;5.862;2022-09-09T11:24:59;8.23;;;2.05;;
54430;SDS011;40342;52.998;5.862;2022-09-09T11:27:37;10.10;;;2.13;;
54430;SDS011;40342;52.998;5.862;2022-09-09T11:30:22;6.10;;;2.00;;
54430;SDS011;40342;52.998;5.862;2022-09-09T11:33:00;4.70;;;1.92;;
54430;SDS011;40342;52.998;5.862;2022-09-09T11:35:54;6.72;;;1.95;;
54430;SDS011;40342;52.998;5.862;2022-09-09T11:41:35;8.43;;;1.85;;
54430;SDS011;40342;52.998;5.862;2022-09-09T11:44:09;5.15;;;1.77;;
54430;SDS011;40342;52.998;5.862;2022-09-09T11:46:50;8.23;;;2.03;;
54430;SDS011;40342;52.998;5.862;2022-09-09T11:53:02;9.95;;;2.17;;
54430;SDS011;40342;52.998;5.862;2022-09-09T11:55:09;8.60;;;2.22;;
54430;SDS011;40342;52.998;5.862;2022-09-09T11:57:37;7.15;;;2.15;;
54430;SDS011;40342;52.998;5.862;2022-09-09T12:00:04;7.43;;;2.00;;
54430;SDS011;40342;52.998;5.862;2022-09-09T12:02:31;7.90;;;1.80;;
54430;SDS011;40342;52.998;5.862;2022-09-09T12:05:07;8.00;;;2.28;;
54430;SDS011;40342;52.998;5.862;2022-09-09T12:07:47;7.20;;;2.15;;
54430;SDS011;40342;52.998;5.862;2022-09-09T12:10:29;8.75;;;2.33;;
54430;SDS011;40342;52.998;5.862;2022-09-09T12:13:07;12.93;;;2.07;;
54430;SDS011;40342;52.998;5.862;2022-09-09T12:15:54;10.23;;;2.50;;
54430;SDS011;40342;52.998;5.862;2022-09-09T12:18:34;11.88;;;2.50;;
54430;SDS011;40342;52.998;5.862;2022-09-09T12:23:52;7.72;;;2.40;;
54430;SDS011;40342;52.998;5.862;2022-09-09T12:36:56;8.55;;;2.05;;
54430;SDS011;40342;52.998;5.862;2022-09-09T12:39:38;8.15;;;1.88;;
54430;SDS011;40342;52.998;5.862;2022-09-09T12:42:18;9.38;;;1.73;;
54430;SDS011;40342;52.998;5.862;2022-09-09T12:44:52;8.13;;;1.65;;
54430;SDS011;40342;52.998;5.862;2022-09-09T12:47:19;5.13;;;1.60;;
54430;SDS011;40342;52.998;5.862;2022-09-09T12:49:47;6.13;;;1.80;;
54430;SDS011;40342;52.998;5.862;2022-09-09T12:54:51;8.77;;;1.88;;
54430;SDS011;40342;52.998;5.862;2022-09-09T12:57:18;4.28;;;1.50;;
54430;SDS011;40342;52.998;5.862;2022-09-09T12:59:46;9.07;;;1.73;;
54430;SDS011;40342;52.998;5.862;2022-09-09T13:02:18;5.15;;;1.80;;
54430;SDS011;40342;52.998;5.862;2022-09-09T13:04:47;9.02;;;2.05;;
54430;SDS011;40342;52.998;5.862;2022-09-09T13:07:16;7.05;;;1.90;;
54430;SDS011;40342;52.998;5.862;2022-09-09T13:09:43;11.00;;;1.45;;
54430;SDS011;40342;52.998;5.862;2022-09-09T13:12:14;14.32;;;1.63;;
54430;SDS011;40342;52.998;5.862;2022-09-09T13:14:45;9.52;;;1.50;;
54430;SDS011;40342;52.998;5.862;2022-09-09T13:17:19;4.95;;;1.65;;
54430;SDS011;40342;52.998;5.862;2022-09-09T13:19:46;7.68;;;2.05;;
54430;SDS011;40342;52.998;5.862;2022-09-09T13:22:48;4.80;;;1.42;;
54430;SDS011;40342;52.998;5.862;2022-09-09T13:27:40;7.03;;;1.40;;
54430;SDS011;40342;52.998;5.862;2022-09-09T13:30:23;5.78;;;1.65;;
54430;SDS011;40342;52.998;5.862;2022-09-09T13:35:51;5.93;;;1.90;;
54430;SDS011;40342;52.998;5.862;2022-09-09T13:38:24;8.15;;;1.98;;
54430;SDS011;40342;52.998;5.862;2022-09-09T13:40:57;7.35;;;1.92;;
54430;SDS011;40342;52.998;5.862;2022-09-09T13:43:27;5.70;;;1.60;;
54430;SDS011;40342;52.998;5.862;2022-09-09T13:45:54;4.80;;;1.40;;
54430;SDS011;40342;52.998;5.862;2022-09-09T13:48:21;6.90;;;1.52;;
54430;SDS011;40342;52.998;5.862;2022-09-09T13:50:57;4.20;;;1.60;;
54430;SDS011;40342;52.998;5.862;2022-09-09T13:53:24;3.42;;;1.20;;
54430;SDS011;40342;52.998;5.862;2022-09-09T13:55:50;5.05;;;1.35;;
54430;SDS011;40342;52.998;5.862;2022-09-09T13:58:17;3.30;;;1.20;;
54430;SDS011;40342;52.998;5.862;2022-09-09T14:00:44;2.95;;;1.15;;
54430;SDS011;40342;52.998;5.862;2022-09-09T14:03:10;7.85;;;1.50;;
54430;SDS011;40342;52.998;5.862;2022-09-09T14:05:36;3.72;;;1.38;;
54430;SDS011;40342;52.998;5.862;2022-09-09T14:08:03;2.50;;;0.93;;
54430;SDS011;40342;52.998;5.862;2022-09-09T14:10:30;3.25;;;1.27;;
54430;SDS011;40342;52.998;5.862;2022-09-09T14:12:56;3.67;;;1.27;;
54430;SDS011;40342;52.998;5.862;2022-09-09T14:15:21;4.70;;;1.33;;
54430;SDS011;40342;52.998;5.862;2022-09-09T14:17:47;4.93;;;1.55;;
54430;SDS011;40342;52.998;5.862;2022-09-09T14:20:13;4.15;;;1.25;;
54430;SDS011;40342;52.998;5.862;2022-09-09T14:22:40;4.68;;;1.70;;
54430;SDS011;40342;52.998;5.862;2022-09-09T14:25:06;5.80;;;1.73;;
54430;SDS011;40342;52.998;5.862;2022-09-09T14:27:33;4.15;;;1.55;;
54430;SDS011;40342;52.998;5.862;2022-09-09T14:29:58;2.35;;;1.08;;
54430;SDS011;40342;52.998;5.862;2022-09-09T14:32:25;13.00;;;2.20;;
54430;SDS011;40342;52.998;5.862;2022-09-09T14:34:51;6.38;;;1.92;;
54430;SDS011;40342;52.998;5.862;2022-09-09T14:37:17;4.97;;;1.95;;
54430;SDS011;40342;52.998;5.862;2022-09-09T14:39:45;5.45;;;1.60;;
54430;SDS011;40342;52.998;5.862;2022-09-09T14:42:12;7.78;;;1.55;;
54430;SDS011;40342;52.998;5.862;2022-09-09T14:44:38;12.98;;;2.17;;
54430;SDS011;40342;52.998;5.862;2022-09-09T14:47:07;5.50;;;1.60;;
54430;SDS011;40342;52.998;5.862;2022-09-09T14:49:36;8.43;;;1.90;;
54430;SDS011;40342;52.998;5.862;2022-09-09T14:52:02;6.38;;;2.10;;
54430;SDS011;40342;52.998;5.862;2022-09-09T14:54:29;4.63;;;1.80;;
54430;SDS011;40342;52.998;5.862;2022-09-09T14:56:57;4.03;;;1.80;;
54430;SDS011;40342;52.998;5.862;2022-09-09T14:59:23;5.18;;;1.60;;
54430;SDS011;40342;52.998;5.862;2022-09-09T15:01:48;3.88;;;1.63;;
54430;SDS011;40342;52.998;5.862;2022-09-09T15:04:14;7.63;;;2.05;;
54430;SDS011;40342;52.998;5.862;2022-09-09T15:06:41;5.93;;;1.70;;
54430;SDS011;40342;52.998;5.862;2022-09-09T15:09:09;4.80;;;1.95;;
54430;SDS011;40342;52.998;5.862;2022-09-09T15:11:36;3.78;;;1.75;;
54430;SDS011;40342;52.998;5.862;2022-09-09T15:14:06;3.83;;;1.60;;
54430;SDS011;40342;52.998;5.862;2022-09-09T15:16:33;3.22;;;1.60;;
54430;SDS011;40342;52.998;5.862;2022-09-09T15:19:00;2.65;;;1.60;;
54430;SDS011;40342;52.998;5.862;2022-09-09T15:21:29;4.28;;;1.77;;
54430;SDS011;40342;52.998;5.862;2022-09-09T15:23:57;3.78;;;1.67;;
54430;SDS011;40342;52.998;5.862;2022-09-09T15:26:23;4.95;;;1.77;;
54430;SDS011;40342;52.998;5.862;2022-09-09T15:28:49;2.70;;;1.35;;
54430;SDS011;40342;52.998;5.862;2022-09-09T15:31:17;4.88;;;1.48;;
54430;SDS011;40342;52.998;5.862;2022-09-09T15:33:47;6.57;;;1.60;;
54430;SDS011;40342;52.998;5.862;2022-09-09T15:36:24;4.05;;;1.92;;
54430;SDS011;40342;52.998;5.862;2022-09-09T15:38:51;3.95;;;1.60;;
54430;SDS011;40342;52.998;5.862;2022-09-09T15:41:17;7.55;;;2.10;;
54430;SDS011;40342;52.998;5.862;2022-09-09T15:43:45;4.45;;;2.05;;
54430;SDS011;40342;52.998;5.862;2022-09-09T15:48:42;3.35;;;1.80;;
54430;SDS011;40342;52.998;5.862;2022-09-09T15:51:12;6.07;;;2.10;;
54430;SDS011;40342;52.998;5.862;2022-09-09T15:53:39;2.58;;;1.85;;
54430;SDS011;40342;52.998;5.862;2022-09-09T15:56:05;3.80;;;2.10;;
54430;SDS011;40342;52.998;5.862;2022-09-09T15:58:31;5.18;;;2.63;;
54430;SDS011;40342;52.998;5.862;2022-09-09T16:03:37;3.67;;;2.22;;
54430;SDS011;40342;52.998;5.862;2022-09-09T16:06:04;7.15;;;2.30;;
54430;SDS011;40342;52.998;5.862;2022-09-09T16:08:31;5.65;;;2.10;;
54430;SDS011;40342;52.998;5.862;2022-09-09T16:11:03;4.30;;;2.13;;
54430;SDS011;40342;52.998;5.862;2022-09-09T16:13:38;3.50;;;2.10;;
54430;SDS011;40342;52.998;5.862;2022-09-09T16:16:04;5.22;;;2.65;;
54430;SDS011;40342;52.998;5.862;2022-09-09T16:18:35;4.93;;;2.20;;
54430;SDS011;40342;52.998;5.862;2022-09-09T16:21:02;3.40;;;2.15;;
54430;SDS011;40342;52.998;5.862;2022-09-09T16:23:30;6.18;;;2.13;;
54430;SDS011;40342;52.998;5.862;2022-09-09T16:25:57;5.50;;;1.75;;
54430;SDS011;40342;52.998;5.862;2022-09-09T16:28:23;7.50;;;2.30;;
54430;SDS011;40342;52.998;5.862;2022-09-09T16:30:48;5.35;;;2.20;;
54430;SDS011;40342;52.998;5.862;2022-09-09T16:33:15;4.97;;;2.00;;
54430;SDS011;40342;52.998;5.862;2022-09-09T16:35:41;6.15;;;2.08;;
54430;SDS011;40342;52.998;5.862;2022-09-09T16:38:06;7.43;;;3.17;;
54430;SDS011;40342;52.998;5.862;2022-09-09T16:40:36;7.05;;;2.40;;
54430;SDS011;40342;52.998;5.862;2022-09-09T16:43:02;7.65;;;2.40;;
54430;SDS011;40342;52.998;5.862;2022-09-09T16:45:40;3.78;;;1.95;;
54430;SDS011;40342;52.998;5.862;2022-09-09T16:48:10;3.50;;;2.10;;
54430;SDS011;40342;52.998;5.862;2022-09-09T16:50:36;5.47;;;2.22;;
54430;SDS011;40342;52.998;5.862;2022-09-09T16:53:02;3.67;;;1.92;;
54430;SDS011;40342;52.998;5.862;2022-09-09T16:55:31;6.25;;;2.13;;